Recep Reis 1 — TCBZ7 — position and weather

sailwx.info

Track history (hours):
 
Tides and Currents Weather Stations Pressure Air Temp Water Temp Dewpoint Dewpoint Depression Visibility Wind Speed Wind Dir Waves Ship Positions

Recep Reis 1

Last reported at 2017-Nov-16 13:31 UTC. Time now 2017-Nov-21 15:21 UTC.
Position N 40°43' E 029°04'.

Length 75 m; draft 4.9 m.

Type: Cargo ship. MMSI: 271002215.

Date/timePositionNaut miles runAvg speedWind from/ knotsBaromVisibWave heightAir tempDewpointWater temp
2017-Nov-16 13:31N 40°43' E 029°04'3 9.9
2017-Nov-16 13:15N 40°43' E 029°07'3 9.7
2017-Nov-16 12:59N 40°44' E 029°10'5 9.8
2017-Nov-16 12:30N 40°44' E 029°17'  
2017-Nov-12 01:08N 44°28' E 037°37'1 8.2
2017-Nov-12 00:59N 44°29' E 037°38'4 8.1
2017-Nov-12 00:27N 44°32' E 037°42'4 8.0
2017-Nov-12 00:00N 44°35' E 037°45'4 8.0
2017-Nov-11 23:30N 44°38' E 037°48'3 6.9
2017-Nov-11 23:00N 44°41' E 037°50'3 6.6
2017-Nov-11 22:30N 44°44' E 037°47'0 0.2
2017-Nov-11 21:58N 44°44' E 037°47'0 0.0
2017-Nov-11 21:28N 44°44' E 037°47'0 0.0
2017-Nov-11 20:58N 44°44' E 037°47'0 0.0
2017-Nov-11 20:28N 44°44' E 037°47'0 0.0
2017-Nov-11 19:55N 44°44' E 037°47'0 0.0
2017-Nov-11 19:28N 44°44' E 037°47'0 0.0
2017-Nov-11 18:58N 44°44' E 037°47'0 0.0
2017-Nov-11 18:28N 44°44' E 037°47'0 0.0
2017-Nov-11 17:58N 44°44' E 037°47'0 0.0
2017-Nov-11 17:28N 44°44' E 037°47'0 0.0
2017-Nov-11 16:58N 44°44' E 037°47'0 0.0
2017-Nov-11 16:25N 44°44' E 037°47'0 0.0
2017-Nov-11 15:55N 44°44' E 037°47'0 0.0
2017-Nov-11 15:28N 44°44' E 037°47'0 0.0
2017-Nov-11 14:58N 44°44' E 037°47'0 0.0
2017-Nov-11 14:28N 44°44' E 037°47'0 0.0
2017-Nov-11 13:58N 44°44' E 037°47'0 0.0
2017-Nov-11 13:28N 44°44' E 037°47'0 0.0
2017-Nov-11 12:55N 44°44' E 037°47'0 0.0
2017-Nov-11 12:25N 44°44' E 037°47'0 0.0
2017-Nov-11 11:58N 44°44' E 037°47'0 0.0
2017-Nov-11 11:28N 44°44' E 037°47'0 0.0
2017-Nov-11 10:58N 44°44' E 037°47'0 0.0
2017-Nov-11 10:28N 44°44' E 037°47'0 0.0
2017-Nov-11 09:58N 44°44' E 037°47'0 0.0
2017-Nov-11 09:25N 44°44' E 037°47'0 0.0
2017-Nov-11 08:58N 44°44' E 037°47'0 0.0
2017-Nov-11 08:28N 44°44' E 037°47'0 0.0
2017-Nov-11 07:58N 44°44' E 037°47'0 0.0
2017-Nov-11 07:28N 44°44' E 037°47'0 0.0
2017-Nov-11 06:58N 44°44' E 037°47'0 0.0
2017-Nov-11 06:25N 44°44' E 037°47'0 0.0
2017-Nov-11 05:58N 44°44' E 037°47'0 0.0
2017-Nov-11 05:25N 44°44' E 037°47'0 0.0
2017-Nov-11 04:58N 44°44' E 037°47'0 0.0
2017-Nov-11 04:13N 44°44' E 037°47'0 0.0
2017-Nov-11 03:58N 44°44' E 037°47'0 0.0
2017-Nov-11 03:28N 44°44' E 037°47'0 0.0
2017-Nov-11 02:58N 44°44' E 037°47'0 0.0
2017-Nov-11 02:28N 44°44' E 037°47'0 0.0
2017-Nov-11 01:58N 44°44' E 037°47'0 0.0
2017-Nov-11 01:28N 44°44' E 037°47'0 0.0
2017-Nov-11 00:58N 44°44' E 037°47'0 0.0
2017-Nov-11 00:28N 44°44' E 037°47'0 0.0
2017-Nov-10 23:58N 44°44' E 037°47'0 0.0
2017-Nov-10 23:28N 44°44' E 037°47'0 0.0
2017-Nov-10 22:58N 44°44' E 037°47'0 0.0
2017-Nov-10 22:28N 44°44' E 037°47'0 0.0
2017-Nov-10 21:58N 44°44' E 037°47'0 0.0
2017-Nov-10 21:28N 44°44' E 037°47'0 0.0
2017-Nov-10 20:58N 44°44' E 037°47'0 0.0
2017-Nov-10 20:28N 44°44' E 037°47'0 0.0
2017-Nov-10 19:58N 44°44' E 037°47'0 0.0
2017-Nov-10 19:28N 44°44' E 037°47'0 0.0
2017-Nov-10 18:55N 44°44' E 037°47'0 0.0
2017-Nov-10 18:25N 44°44' E 037°47'0 0.0
2017-Nov-10 17:58N 44°44' E 037°47'0 0.0
2017-Nov-10 17:28N 44°44' E 037°47'0 0.0
2017-Nov-10 16:58N 44°44' E 037°47'0 0.0
2017-Nov-10 16:28N 44°44' E 037°47'0 0.1
2017-Nov-10 15:58N 44°44' E 037°47'0 0.1
2017-Nov-10 15:25N 44°44' E 037°47'0 0.0
2017-Nov-10 14:55N 44°44' E 037°47'0 0.0
2017-Nov-10 14:28N 44°44' E 037°47'0 0.0
2017-Nov-10 13:58N 44°44' E 037°47'0 0.0
2017-Nov-10 13:28N 44°44' E 037°47'0 0.0
2017-Nov-10 12:58N 44°44' E 037°47'0 0.0
2017-Nov-10 12:28N 44°44' E 037°47'0 0.0
2017-Nov-10 12:00N 44°44' E 037°47'2 3.1
2017-Nov-10 11:30N 44°43' E 037°49'3 5.6
2017-Nov-10 11:00N 44°40' E 037°50'3 6.3
2017-Nov-10 10:30N 44°38' E 037°53'0 0.6
2017-Nov-10 10:00N 44°38' E 037°53'0 0.5
2017-Nov-10 09:30N 44°38' E 037°53'0 0.5
2017-Nov-10 09:00N 44°38' E 037°52'0 0.6
2017-Nov-10 08:30N 44°38' E 037°52'0 0.8
2017-Nov-10 08:00N 44°38' E 037°52'2 4.2
2017-Nov-10 07:30N 44°36' E 037°52'0 0.4
2017-Nov-10 07:00N 44°36' E 037°52'1 1.0
2017-Nov-10 06:30N 44°36' E 037°52'0 1.0
2017-Nov-10 06:00N 44°37' E 037°52'1 1.7
2017-Nov-10 05:30N 44°36' E 037°51'3 5.7
2017-Nov-10 05:00N 44°34' E 037°48'3 5.7
2017-Nov-10 04:30N 44°32' E 037°45'  
2017-Nov-07 05:59N 40°51' E 029°17'0 0.0
2017-Nov-07 05:29N 40°51' E 029°17'0 0.0
2017-Nov-07 04:59N 40°51' E 029°17'0 0.0
2017-Nov-07 04:23N 40°51' E 029°17'0 0.0
2017-Nov-07 03:59N 40°51' E 029°17'0 0.0
2017-Nov-07 03:29N 40°51' E 029°17'0 0.0
2017-Nov-07 02:59N 40°51' E 029°17'0 0.0
2017-Nov-07 02:29N 40°51' E 029°17'0 0.0
2017-Nov-07 01:59N 40°51' E 029°17'0 0.0
2017-Nov-07 01:29N 40°51' E 029°17'0 0.0
2017-Nov-07 00:59N 40°51' E 029°17'0 0.0
2017-Nov-07 00:29N 40°51' E 029°17'0 0.0
2017-Nov-06 23:59N 40°51' E 029°17'0 0.0
2017-Nov-06 23:23N 40°51' E 029°17'0 0.0
2017-Nov-06 22:59N 40°51' E 029°17'0 0.0
2017-Nov-06 22:26N 40°51' E 029°17'0 0.0
2017-Nov-06 21:56N 40°51' E 029°17'0 0.0
2017-Nov-06 21:26N 40°51' E 029°17'0 0.0
2017-Nov-06 20:56N 40°51' E 029°17'0 0.0
2017-Nov-06 20:14N 40°51' E 029°17'  
Track history (hours):
 
Tides and Currents Weather Stations Pressure Air Temp Water Temp Dewpoint Dewpoint Depression Visibility Wind Speed Wind Dir Waves Ship Positions

Recep Reis 1

Last reported at 2017-Nov-16 13:31 UTC. Time now 2017-Nov-21 15:21 UTC.
Position N 40°43' E 029°04'.

Length 75 m; draft 4.9 m.

Type: Cargo ship. MMSI: 271002215.

Date/timePositionNaut miles runAvg speedWind from/ knotsBaromVisibWave heightAir tempDewpointWater temp
2017-Nov-16 13:31N 40°43' E 029°04'3 9.9
2017-Nov-16 13:15N 40°43' E 029°07'3 9.7
2017-Nov-16 12:59N 40°44' E 029°10'5 9.8
2017-Nov-16 12:30N 40°44' E 029°17'  
2017-Nov-12 01:08N 44°28' E 037°37'1 8.2
2017-Nov-12 00:59N 44°29' E 037°38'4 8.1
2017-Nov-12 00:27N 44°32' E 037°42'4 8.0
2017-Nov-12 00:00N 44°35' E 037°45'4 8.0
2017-Nov-11 23:30N 44°38' E 037°48'3 6.9
2017-Nov-11 23:00N 44°41' E 037°50'3 6.6
2017-Nov-11 22:30N 44°44' E 037°47'0 0.2
2017-Nov-11 21:58N 44°44' E 037°47'0 0.0
2017-Nov-11 21:28N 44°44' E 037°47'0 0.0
2017-Nov-11 20:58N 44°44' E 037°47'0 0.0
2017-Nov-11 20:28N 44°44' E 037°47'0 0.0
2017-Nov-11 19:55N 44°44' E 037°47'0 0.0
2017-Nov-11 19:28N 44°44' E 037°47'0 0.0
2017-Nov-11 18:58N 44°44' E 037°47'0 0.0
2017-Nov-11 18:28N 44°44' E 037°47'0 0.0
2017-Nov-11 17:58N 44°44' E 037°47'0 0.0
2017-Nov-11 17:28N 44°44' E 037°47'0 0.0
2017-Nov-11 16:58N 44°44' E 037°47'0 0.0
2017-Nov-11 16:25N 44°44' E 037°47'0 0.0
2017-Nov-11 15:55N 44°44' E 037°47'0 0.0
2017-Nov-11 15:28N 44°44' E 037°47'0 0.0
2017-Nov-11 14:58N 44°44' E 037°47'0 0.0
2017-Nov-11 14:28N 44°44' E 037°47'0 0.0
2017-Nov-11 13:58N 44°44' E 037°47'0 0.0
2017-Nov-11 13:28N 44°44' E 037°47'0 0.0
2017-Nov-11 12:55N 44°44' E 037°47'0 0.0
2017-Nov-11 12:25N 44°44' E 037°47'0 0.0
2017-Nov-11 11:58N 44°44' E 037°47'0 0.0
2017-Nov-11 11:28N 44°44' E 037°47'0 0.0
2017-Nov-11 10:58N 44°44' E 037°47'0 0.0
2017-Nov-11 10:28N 44°44' E 037°47'0 0.0
2017-Nov-11 09:58N 44°44' E 037°47'0 0.0
2017-Nov-11 09:25N 44°44' E 037°47'0 0.0
2017-Nov-11 08:58N 44°44' E 037°47'0 0.0
2017-Nov-11 08:28N 44°44' E 037°47'0 0.0
2017-Nov-11 07:58N 44°44' E 037°47'0 0.0
2017-Nov-11 07:28N 44°44' E 037°47'0 0.0
2017-Nov-11 06:58N 44°44' E 037°47'0 0.0
2017-Nov-11 06:25N 44°44' E 037°47'0 0.0
2017-Nov-11 05:58N 44°44' E 037°47'0 0.0
2017-Nov-11 05:25N 44°44' E 037°47'0 0.0
2017-Nov-11 04:58N 44°44' E 037°47'0 0.0
2017-Nov-11 04:13N 44°44' E 037°47'0 0.0
2017-Nov-11 03:58N 44°44' E 037°47'0 0.0
2017-Nov-11 03:28N 44°44' E 037°47'0 0.0
2017-Nov-11 02:58N 44°44' E 037°47'0 0.0
2017-Nov-11 02:28N 44°44' E 037°47'0 0.0
2017-Nov-11 01:58N 44°44' E 037°47'0 0.0
2017-Nov-11 01:28N 44°44' E 037°47'0 0.0
2017-Nov-11 00:58N 44°44' E 037°47'0 0.0
2017-Nov-11 00:28N 44°44' E 037°47'0 0.0
2017-Nov-10 23:58N 44°44' E 037°47'0 0.0
2017-Nov-10 23:28N 44°44' E 037°47'0 0.0
2017-Nov-10 22:58N 44°44' E 037°47'0 0.0
2017-Nov-10 22:28N 44°44' E 037°47'0 0.0
2017-Nov-10 21:58N 44°44' E 037°47'0 0.0
2017-Nov-10 21:28N 44°44' E 037°47'0 0.0
2017-Nov-10 20:58N 44°44' E 037°47'0 0.0
2017-Nov-10 20:28N 44°44' E 037°47'0 0.0
2017-Nov-10 19:58N 44°44' E 037°47'0 0.0
2017-Nov-10 19:28N 44°44' E 037°47'0 0.0
2017-Nov-10 18:55N 44°44' E 037°47'0 0.0
2017-Nov-10 18:25N 44°44' E 037°47'0 0.0
2017-Nov-10 17:58N 44°44' E 037°47'0 0.0
2017-Nov-10 17:28N 44°44' E 037°47'0 0.0
2017-Nov-10 16:58N 44°44' E 037°47'0 0.0
2017-Nov-10 16:28N 44°44' E 037°47'0 0.1
2017-Nov-10 15:58N 44°44' E 037°47'0 0.1
2017-Nov-10 15:25N 44°44' E 037°47'0 0.0
2017-Nov-10 14:55N 44°44' E 037°47'0 0.0
2017-Nov-10 14:28N 44°44' E 037°47'0 0.0
2017-Nov-10 13:58N 44°44' E 037°47'0 0.0
2017-Nov-10 13:28N 44°44' E 037°47'0 0.0
2017-Nov-10 12:58N 44°44' E 037°47'0 0.0
2017-Nov-10 12:28N 44°44' E 037°47'0 0.0
2017-Nov-10 12:00N 44°44' E 037°47'2 3.1
2017-Nov-10 11:30N 44°43' E 037°49'3 5.6
2017-Nov-10 11:00N 44°40' E 037°50'3 6.3
2017-Nov-10 10:30N 44°38' E 037°53'0 0.6
2017-Nov-10 10:00N 44°38' E 037°53'0 0.5
2017-Nov-10 09:30N 44°38' E 037°53'0 0.5
2017-Nov-10 09:00N 44°38' E 037°52'0 0.6
2017-Nov-10 08:30N 44°38' E 037°52'0 0.8
2017-Nov-10 08:00N 44°38' E 037°52'2 4.2
2017-Nov-10 07:30N 44°36' E 037°52'0 0.4
2017-Nov-10 07:00N 44°36' E 037°52'1 1.0
2017-Nov-10 06:30N 44°36' E 037°52'0 1.0
2017-Nov-10 06:00N 44°37' E 037°52'1 1.7
2017-Nov-10 05:30N 44°36' E 037°51'3 5.7
2017-Nov-10 05:00N 44°34' E 037°48'3 5.7
2017-Nov-10 04:30N 44°32' E 037°45'  
2017-Nov-07 05:59N 40°51' E 029°17'0 0.0
2017-Nov-07 05:29N 40°51' E 029°17'0 0.0
2017-Nov-07 04:59N 40°51' E 029°17'0 0.0
2017-Nov-07 04:23N 40°51' E 029°17'0 0.0
2017-Nov-07 03:59N 40°51' E 029°17'0 0.0
2017-Nov-07 03:29N 40°51' E 029°17'0 0.0
2017-Nov-07 02:59N 40°51' E 029°17'0 0.0
2017-Nov-07 02:29N 40°51' E 029°17'0 0.0
2017-Nov-07 01:59N 40°51' E 029°17'0 0.0
2017-Nov-07 01:29N 40°51' E 029°17'0 0.0
2017-Nov-07 00:59N 40°51' E 029°17'0 0.0
2017-Nov-07 00:29N 40°51' E 029°17'0 0.0
2017-Nov-06 23:59N 40°51' E 029°17'0 0.0
2017-Nov-06 23:23N 40°51' E 029°17'0 0.0
2017-Nov-06 22:59N 40°51' E 029°17'0 0.0
2017-Nov-06 22:26N 40°51' E 029°17'0 0.0
2017-Nov-06 21:56N 40°51' E 029°17'0 0.0
2017-Nov-06 21:26N 40°51' E 029°17'0 0.0
2017-Nov-06 20:56N 40°51' E 029°17'0 0.0
2017-Nov-06 20:14N 40°51' E 029°17'  

Dump ship's entire track history